createdAt,value
2018-11-03T00:01:42.160Z,19.82
2018-11-03T00:04:10.527Z,19.95
2018-11-03T00:06:38.938Z,20.68
2018-11-03T00:09:09.307Z,20.57
2018-11-03T00:11:38.217Z,19.87
2018-11-03T00:14:06.705Z,20.72
2018-11-03T00:16:35.092Z,19.40
2018-11-03T00:19:03.491Z,19.07
2018-11-03T00:21:31.892Z,18.02
2018-11-03T00:24:00.412Z,17.73
2018-11-03T00:26:29.022Z,19.20
2018-11-03T00:28:57.687Z,19.60
2018-11-03T00:31:26.065Z,19.32
2018-11-03T00:33:54.464Z,18.00
2018-11-03T00:36:22.869Z,18.17
2018-11-03T00:38:51.245Z,16.85
2018-11-03T00:41:19.647Z,18.48
2018-11-03T00:43:48.255Z,18.45
2018-11-03T00:46:16.600Z,16.55
2018-11-03T00:48:44.952Z,18.20
2018-11-03T00:51:13.342Z,19.48
2018-11-03T00:53:41.705Z,18.57
2018-11-03T00:56:10.057Z,18.52
2018-11-03T00:58:38.460Z,19.95
2018-11-03T01:01:06.967Z,18.77
2018-11-03T01:03:35.320Z,17.35
2018-11-03T01:06:03.993Z,18.95
2018-11-03T01:08:32.418Z,17.25
2018-11-03T01:11:00.768Z,18.40
2018-11-03T01:13:29.443Z,17.82
2018-11-03T01:15:57.813Z,18.75
2018-11-03T01:18:26.205Z,18.70
2018-11-03T01:20:54.611Z,17.25
2018-11-03T01:23:23.225Z,21.17
2018-11-03T01:25:51.981Z,19.12
2018-11-03T01:28:20.390Z,18.45
2018-11-03T01:30:48.774Z,18.73
2018-11-03T01:33:17.133Z,20.35
2018-11-03T01:35:45.541Z,19.55
2018-11-03T01:38:13.922Z,20.70
2018-11-03T01:40:42.287Z,18.32
2018-11-03T01:43:10.670Z,19.65
2018-11-03T01:45:39.035Z,17.27
2018-11-03T01:48:07.984Z,18.62
2018-11-03T01:50:36.374Z,19.07
2018-11-03T01:53:04.929Z,19.90
2018-11-03T01:55:33.313Z,22.42
2018-11-03T01:58:01.721Z,23.35
2018-11-03T02:00:30.101Z,20.77
2018-11-03T02:02:58.460Z,20.50
2018-11-03T02:05:27.149Z,19.48
2018-11-03T02:07:55.492Z,21.40
2018-11-03T02:10:23.856Z,19.60
2018-11-03T02:12:52.278Z,19.48
2018-11-03T02:15:20.646Z,19.98
2018-11-03T02:17:49.135Z,18.80
2018-11-03T02:20:17.525Z,20.40
2018-11-03T02:22:45.894Z,19.87
2018-11-03T02:25:14.279Z,19.02
2018-11-03T02:27:42.652Z,20.15
2018-11-03T02:30:12.082Z,18.87
2018-11-03T02:32:40.664Z,19.05
2018-11-03T02:35:10.620Z,18.80
2018-11-03T02:37:39.580Z,20.68
2018-11-03T02:40:09.500Z,18.05
2018-11-03T02:42:37.890Z,18.67
2018-11-03T02:45:07.761Z,18.85
2018-11-03T02:47:36.156Z,19.25
2018-11-03T02:50:05.749Z,18.48
2018-11-03T02:52:34.441Z,18.90
2018-11-03T02:55:02.819Z,17.40
2018-11-03T02:57:31.225Z,18.10
2018-11-03T02:59:59.573Z,17.10
2018-11-03T03:02:28.005Z,19.07
2018-11-03T03:04:56.394Z,16.87
2018-11-03T03:07:24.756Z,18.60
2018-11-03T03:09:53.126Z,17.80
2018-11-03T03:12:21.843Z,18.52
2018-11-03T03:14:50.530Z,17.25
2018-11-03T03:17:18.908Z,20.05
2018-11-03T03:19:47.280Z,18.45
2018-11-03T03:22:15.703Z,18.32
2018-11-03T03:24:44.067Z,17.50
2018-11-03T03:27:12.480Z,18.95
2018-11-03T03:29:41.093Z,20.82
2018-11-03T03:32:09.368Z,16.75
2018-11-03T03:34:37.747Z,18.80
2018-11-03T03:37:06.195Z,19.50
2018-11-03T03:39:34.592Z,18.92
2018-11-03T03:42:02.981Z,21.15
2018-11-03T03:44:31.353Z,28.23
2018-11-03T03:46:59.712Z,28.30
2018-11-03T03:49:28.095Z,26.48
2018-11-03T03:51:56.465Z,22.35
2018-11-03T03:54:24.810Z,25.32
2018-11-03T03:56:53.272Z,25.65
2018-11-03T03:59:21.631Z,27.15
2018-11-03T04:01:50.024Z,26.33
2018-11-03T04:04:18.400Z,25.35
2018-11-03T04:06:47.354Z,22.62
2018-11-03T04:09:15.714Z,20.82
2018-11-03T04:11:44.143Z,19.25
2018-11-03T04:14:12.539Z,21.23
2018-11-03T04:16:41.201Z,19.42
2018-11-03T04:19:09.628Z,18.20
2018-11-03T04:21:37.988Z,18.55
2018-11-03T04:24:06.424Z,17.00
2018-11-03T04:26:34.819Z,17.05
2018-11-03T04:29:03.196Z,16.52
2018-11-03T04:31:31.807Z,16.82
2018-11-03T04:34:00.199Z,16.42
2018-11-03T04:36:28.566Z,18.00
2018-11-03T04:38:57.021Z,18.15
2018-11-03T04:41:25.426Z,18.05
2018-11-03T04:43:53.848Z,17.05
2018-11-03T04:46:22.223Z,17.32
2018-11-03T04:48:54.822Z,17.32
2018-11-03T04:51:23.216Z,19.20
2018-11-03T04:53:51.821Z,16.57
2018-11-03T04:56:20.216Z,19.65
2018-11-03T04:58:48.617Z,17.32
2018-11-03T05:01:17.287Z,18.50
2018-11-03T05:03:45.664Z,17.75
2018-11-03T05:06:14.014Z,15.83
2018-11-03T05:08:42.397Z,16.60
2018-11-03T05:11:10.769Z,15.18
2018-11-03T05:13:39.551Z,16.12
2018-11-03T05:16:07.947Z,17.50
2018-11-03T05:18:36.347Z,17.85
2018-11-03T05:21:04.771Z,16.15
2018-11-03T05:23:33.144Z,16.65
2018-11-03T05:26:01.546Z,17.37
2018-11-03T05:28:29.920Z,18.25
2018-11-03T05:30:58.406Z,15.70
2018-11-03T05:33:26.718Z,16.05
2018-11-03T05:35:55.091Z,15.13
2018-11-03T05:38:23.624Z,17.12
2018-11-03T05:40:52.035Z,16.70
2018-11-03T05:43:20.394Z,16.35
2018-11-03T05:45:48.747Z,17.52
2018-11-03T05:48:17.120Z,16.95
2018-11-03T05:50:45.494Z,16.80
2018-11-03T05:53:13.829Z,16.35
2018-11-03T05:55:42.208Z,16.35
2018-11-03T05:58:10.894Z,16.57
2018-11-03T06:00:39.269Z,16.00
2018-11-03T06:03:07.651Z,16.67
2018-11-03T06:05:36.021Z,15.93
2018-11-03T06:08:04.403Z,17.90
2018-11-03T06:10:32.799Z,18.77
2018-11-03T06:13:01.169Z,16.95
2018-11-03T06:15:29.938Z,16.80
2018-11-03T06:17:58.369Z,17.37
2018-11-03T06:20:26.796Z,19.75
2018-11-03T06:22:55.287Z,16.45
2018-11-03T06:25:23.616Z,18.05
2018-11-03T06:27:52.013Z,19.45
2018-11-03T06:30:20.468Z,18.10
2018-11-03T06:32:48.867Z,17.17
2018-11-03T06:35:17.268Z,18.00
2018-11-03T06:37:45.636Z,16.27
2018-11-03T06:40:14.359Z,17.77
2018-11-03T06:42:42.744Z,16.95
2018-11-03T06:45:11.375Z,18.98
2018-11-03T06:47:39.770Z,18.92
2018-11-03T06:50:08.657Z,18.00
2018-11-03T06:52:37.009Z,17.75
2018-11-03T06:55:06.633Z,18.42
2018-11-03T06:57:35.448Z,17.80
2018-11-03T07:00:04.737Z,17.98
2018-11-03T07:02:33.109Z,20.02
2018-11-03T07:05:01.536Z,18.07
2018-11-03T07:07:29.878Z,18.30
2018-11-03T07:09:58.848Z,18.70
2018-11-03T07:12:27.664Z,15.40
2018-11-03T07:14:55.907Z,17.37
2018-11-03T07:17:24.658Z,16.87
2018-11-03T07:19:53.042Z,15.80
2018-11-03T07:22:21.675Z,16.37
2018-11-03T07:24:50.108Z,17.05
2018-11-03T07:27:18.484Z,16.65
2018-11-03T07:29:47.214Z,15.53
2018-11-03T07:32:15.824Z,16.35
2018-11-03T07:34:44.192Z,15.65
2018-11-03T07:37:12.600Z,15.78
2018-11-03T07:39:41.028Z,15.93
2018-11-03T07:42:09.410Z,17.85
2018-11-03T07:44:37.780Z,19.00
2018-11-03T07:47:06.180Z,15.00
2018-11-03T07:49:34.562Z,14.95
2018-11-03T07:52:02.991Z,17.62
2018-11-03T07:54:31.605Z,17.37
2018-11-03T07:56:59.924Z,19.02
2018-11-03T07:59:28.617Z,23.27
2018-11-03T08:01:57.295Z,20.75
2018-11-03T08:04:25.920Z,18.15
2018-11-03T08:06:54.319Z,20.55
2018-11-03T08:09:22.728Z,19.80
2018-11-03T08:11:51.125Z,18.52
2018-11-03T08:14:19.519Z,20.72
2018-11-03T08:16:47.959Z,20.62
2018-11-03T08:19:16.366Z,22.98
2018-11-03T08:21:45.060Z,20.00
2018-11-03T08:24:13.603Z,23.80
2018-11-03T08:26:41.966Z,24.02
2018-11-03T08:29:10.365Z,26.75
2018-11-03T08:31:38.860Z,25.48
2018-11-03T08:34:07.798Z,37.40
2018-11-03T08:36:36.157Z,31.73
2018-11-03T08:39:06.122Z,25.57
2018-11-03T08:41:34.494Z,27.10
2018-11-03T08:44:02.926Z,25.90
2018-11-03T08:46:31.369Z,27.10
2018-11-03T08:48:59.860Z,29.92
2018-11-03T08:51:28.156Z,26.75
2018-11-03T08:53:56.549Z,23.45
2018-11-03T08:56:24.928Z,24.15
2018-11-03T08:58:53.283Z,25.02
2018-11-03T09:01:21.673Z,26.80
2018-11-03T09:03:50.180Z,31.20
2018-11-03T09:06:18.867Z,41.63
2018-11-03T09:08:47.840Z,30.02
2018-11-03T09:11:16.227Z,24.82
2018-11-03T09:13:44.951Z,24.10
2018-11-03T09:16:13.359Z,24.98
2018-11-03T09:18:42.748Z,24.60
2018-11-03T09:21:11.134Z,26.48
2018-11-03T09:23:39.702Z,25.77
2018-11-03T09:26:08.373Z,26.25
2018-11-03T09:28:36.770Z,26.80
2018-11-03T09:31:05.456Z,28.12
2018-11-03T09:33:33.849Z,28.87
2018-11-03T09:36:02.245Z,23.45
2018-11-03T09:38:30.916Z,21.42
2018-11-03T09:40:59.342Z,22.20
2018-11-03T09:43:27.821Z,22.70
2018-11-03T09:45:56.137Z,23.50
2018-11-03T09:48:24.542Z,21.45
2018-11-03T09:50:52.923Z,20.97
2018-11-03T09:53:21.436Z,22.87
2018-11-03T09:55:49.836Z,21.15
2018-11-03T09:58:18.208Z,20.65
2018-11-03T10:00:46.895Z,22.55
2018-11-03T10:03:15.284Z,21.60
2018-11-03T10:05:43.658Z,20.60
2018-11-03T10:08:12.057Z,22.07
2018-11-03T10:10:40.434Z,18.45
2018-11-03T10:13:08.811Z,23.32
2018-11-03T10:15:37.787Z,21.02
2018-11-03T10:18:06.210Z,18.07
2018-11-03T10:20:34.575Z,19.10
2018-11-03T10:23:03.058Z,18.70
2018-11-03T10:25:31.921Z,19.23
2018-11-03T10:28:00.294Z,17.05
2018-11-03T10:30:28.714Z,16.70
2018-11-03T10:32:57.409Z,18.15
2018-11-03T10:35:26.085Z,15.10
2018-11-03T10:37:54.462Z,15.35
2018-11-03T10:40:23.114Z,14.18
2018-11-03T10:42:51.721Z,16.70
2018-11-03T10:45:20.092Z,16.82
2018-11-03T10:47:48.488Z,16.07
2018-11-03T10:50:18.383Z,15.30
2018-11-03T10:52:47.565Z,13.85
2018-11-03T10:55:17.345Z,13.32
2018-11-03T10:57:46.097Z,13.80
2018-11-03T11:00:22.315Z,15.30
2018-11-03T11:02:55.874Z,17.02
2018-11-03T11:05:29.521Z,16.05
2018-11-03T11:08:03.330Z,17.60
2018-11-03T11:10:37.243Z,17.32
2018-11-03T11:13:10.196Z,16.20
2018-11-03T11:15:38.900Z,16.02
2018-11-03T11:18:07.295Z,18.80
2018-11-03T11:20:35.689Z,17.62
2018-11-03T11:23:04.345Z,15.75
2018-11-03T11:25:33.001Z,11.18
2018-11-03T11:28:01.942Z,15.28
2018-11-03T11:30:35.688Z,14.65
2018-11-03T11:33:05.159Z,15.85
2018-11-03T11:35:35.116Z,14.10
2018-11-03T11:38:03.521Z,12.85
2018-11-03T11:40:32.187Z,11.27
2018-11-03T11:43:00.656Z,11.75
2018-11-03T11:45:29.276Z,11.40
2018-11-03T11:47:57.642Z,12.43
2018-11-03T11:50:25.997Z,12.17
2018-11-03T11:52:54.688Z,12.50
2018-11-03T11:55:23.075Z,11.75
2018-11-03T11:57:51.468Z,9.50
2018-11-03T12:00:20.483Z,10.70
2018-11-03T12:02:48.821Z,10.43
2018-11-03T12:05:17.819Z,8.58
2018-11-03T12:07:46.553Z,8.20
2018-11-03T12:10:15.022Z,8.58
2018-11-03T12:12:43.324Z,8.35
2018-11-03T12:15:11.815Z,9.48
2018-11-03T12:17:40.336Z,9.68
2018-11-03T12:20:09.021Z,9.55
2018-11-03T12:22:37.942Z,8.97
2018-11-03T12:25:07.608Z,7.45
2018-11-03T12:27:36.737Z,9.10
2018-11-03T12:30:06.833Z,9.00
2018-11-03T12:32:35.805Z,8.37
2018-11-03T12:35:04.209Z,10.40
2018-11-03T12:37:33.220Z,7.15
2018-11-03T12:40:01.621Z,6.30
2018-11-03T12:42:30.240Z,6.95
2018-11-03T12:44:58.716Z,6.92
2018-11-03T12:47:27.081Z,7.30
2018-11-03T12:49:59.743Z,7.10
2018-11-03T12:52:29.823Z,5.72
2018-11-03T12:54:58.211Z,7.00
2018-11-03T12:57:26.908Z,7.37
2018-11-03T12:59:55.380Z,7.10
2018-11-03T13:02:23.760Z,6.33
2018-11-03T13:04:52.909Z,4.97
2018-11-03T13:07:21.420Z,6.00
2018-11-03T13:09:50.310Z,4.50
2018-11-03T13:12:18.802Z,6.23
2018-11-03T13:14:47.076Z,5.13
2018-11-03T13:17:15.461Z,5.33
2018-11-03T13:19:43.961Z,5.47
2018-11-03T13:22:12.654Z,4.87
2018-11-03T13:24:41.068Z,6.00
2018-11-03T13:27:09.476Z,4.80
2018-11-03T13:29:37.858Z,5.03
2018-11-03T13:32:06.801Z,6.58
2018-11-03T13:34:35.207Z,4.50
2018-11-03T13:37:03.834Z,5.45
2018-11-03T13:39:32.532Z,5.62
2018-11-03T13:42:00.915Z,3.53
2018-11-03T13:44:29.885Z,4.40
2018-11-03T13:46:58.307Z,3.50
2018-11-03T13:49:26.701Z,3.50
2018-11-03T13:51:55.077Z,3.00
2018-11-03T13:54:23.440Z,3.60
2018-11-03T13:56:51.860Z,3.00
2018-11-03T13:59:20.514Z,2.90
2018-11-03T14:01:49.535Z,2.90
2018-11-03T14:04:17.929Z,2.80
2018-11-03T14:06:46.292Z,2.90
2018-11-03T14:09:14.670Z,4.17
2018-11-03T14:11:43.068Z,2.57
2018-11-03T14:14:11.435Z,3.10
2018-11-03T14:16:39.825Z,3.27
2018-11-03T14:19:08.203Z,4.35
2018-11-03T14:21:36.972Z,2.10
2018-11-03T14:24:05.853Z,4.30
2018-11-03T14:26:34.553Z,2.60
2018-11-03T14:29:03.014Z,2.73
2018-11-03T14:31:31.324Z,2.77
2018-11-03T14:33:59.737Z,2.50
2018-11-03T14:36:28.160Z,2.63
2018-11-03T14:38:56.687Z,3.67
2018-11-03T14:41:25.432Z,3.10
2018-11-03T14:43:53.794Z,2.67
2018-11-03T14:46:22.157Z,2.83
2018-11-03T14:48:50.761Z,2.73
2018-11-03T14:51:19.248Z,2.17
2018-11-03T14:53:47.611Z,3.73
2018-11-03T14:56:16.365Z,3.10
2018-11-03T14:58:44.697Z,2.57
2018-11-03T15:01:13.079Z,3.25
2018-11-03T15:03:41.458Z,3.03
2018-11-03T15:06:09.830Z,3.83
2018-11-03T15:08:38.242Z,2.37
2018-11-03T15:11:07.542Z,2.50
2018-11-03T15:13:35.935Z,3.97
2018-11-03T15:16:04.553Z,3.23
2018-11-03T15:18:32.966Z,3.30
2018-11-03T15:21:01.359Z,3.47
2018-11-03T15:23:30.028Z,2.42
2018-11-03T15:25:58.745Z,3.40
2018-11-03T15:28:27.141Z,2.80
2018-11-03T15:30:55.513Z,4.20
2018-11-03T15:33:24.171Z,4.58
2018-11-03T15:35:52.542Z,3.47
2018-11-03T15:38:20.924Z,3.02
2018-11-03T15:40:49.916Z,3.42
2018-11-03T15:43:18.372Z,3.65
2018-11-03T15:45:46.762Z,3.17
2018-11-03T15:48:15.172Z,3.40
2018-11-03T15:50:49.980Z,2.58
2018-11-03T15:53:18.595Z,3.33
2018-11-03T15:55:47.409Z,3.50
2018-11-03T15:58:16.041Z,4.30
2018-11-03T16:00:44.451Z,4.03
2018-11-03T16:03:13.012Z,4.55
2018-11-03T16:05:41.388Z,5.40
2018-11-03T16:08:09.787Z,5.17
2018-11-03T16:10:38.174Z,5.62
2018-11-03T16:13:06.556Z,5.15
2018-11-03T16:15:34.973Z,7.53
2018-11-03T16:18:03.594Z,5.65
2018-11-03T16:20:31.982Z,7.10
2018-11-03T16:23:00.689Z,5.08
2018-11-03T16:25:29.367Z,6.60
2018-11-03T16:27:57.756Z,7.28
2018-11-03T16:30:26.131Z,6.22
2018-11-03T16:32:54.782Z,7.15
2018-11-03T16:35:23.173Z,7.15
2018-11-03T16:37:51.854Z,6.67
2018-11-03T16:40:20.226Z,8.18
2018-11-03T16:42:48.576Z,7.33
2018-11-03T16:45:17.448Z,7.72
2018-11-03T16:47:45.950Z,7.47
2018-11-03T16:50:15.720Z,7.97
2018-11-03T16:52:44.534Z,7.08
2018-11-03T16:55:13.914Z,8.05
2018-11-03T16:57:42.860Z,8.93
2018-11-03T17:00:14.493Z,8.55
2018-11-03T17:02:43.004Z,9.95
2018-11-03T17:05:12.766Z,9.13
2018-11-03T17:07:41.300Z,8.68
2018-11-03T17:10:12.074Z,8.25
2018-11-03T17:12:42.211Z,9.48
2018-11-03T17:15:11.380Z,8.30
2018-11-03T17:17:40.028Z,8.00
2018-11-03T17:20:09.154Z,9.48
2018-11-03T17:22:37.660Z,8.93
2018-11-03T17:25:07.314Z,9.43
2018-11-03T17:27:35.761Z,8.23
2018-11-03T17:30:04.739Z,9.60
2018-11-03T17:32:33.175Z,10.65
2018-11-03T17:35:01.591Z,10.40
2018-11-03T17:37:29.955Z,9.70
2018-11-03T17:39:58.337Z,12.55
2018-11-03T17:42:26.724Z,10.78
2018-11-03T17:44:55.099Z,10.45
2018-11-03T17:47:23.457Z,11.93
2018-11-03T17:49:52.115Z,11.28
2018-11-03T17:52:20.767Z,10.50
2018-11-03T17:54:49.282Z,10.20
2018-11-03T17:57:17.836Z,11.60
2018-11-03T17:59:46.235Z,11.63
2018-11-03T18:02:14.626Z,9.70
2018-11-03T18:04:43.209Z,11.53
2018-11-03T18:07:11.611Z,11.20
2018-11-03T18:09:40.317Z,12.85
2018-11-03T18:12:08.729Z,13.00
2018-11-03T18:14:37.098Z,13.45
2018-11-03T18:17:05.658Z,13.25
2018-11-03T18:19:34.113Z,13.83
2018-11-03T18:22:02.488Z,13.30
2018-11-03T18:24:30.958Z,13.15
2018-11-03T18:26:59.669Z,14.78
2018-11-03T18:29:28.403Z,13.90
2018-11-03T18:31:56.776Z,18.60
2018-11-03T18:34:25.509Z,17.23
2018-11-03T18:36:53.854Z,15.00
2018-11-03T18:39:22.254Z,17.05
2018-11-03T18:41:50.691Z,16.60
2018-11-03T18:44:19.222Z,15.60
2018-11-03T18:46:47.674Z,12.65
2018-11-03T18:49:16.350Z,15.90
2018-11-03T18:51:44.773Z,14.78
2018-11-03T18:54:13.162Z,12.65
2018-11-03T18:56:41.579Z,13.75
2018-11-03T18:59:10.009Z,12.73
2018-11-03T19:01:38.748Z,13.18
2018-11-03T19:04:07.140Z,15.45
2018-11-03T19:06:35.513Z,13.93
2018-11-03T19:09:04.767Z,13.70
2018-11-03T19:11:33.179Z,13.70
2018-11-03T19:14:01.574Z,13.72
2018-11-03T19:16:29.956Z,12.35
2018-11-03T19:18:58.385Z,14.07
2018-11-03T19:21:26.802Z,13.10
2018-11-03T19:23:55.251Z,12.55
2018-11-03T19:26:23.698Z,13.78
2018-11-03T19:28:52.072Z,13.50
2018-11-03T19:31:20.480Z,17.10
2018-11-03T19:33:48.892Z,15.78
2018-11-03T19:36:17.273Z,14.00
2018-11-03T19:38:45.673Z,15.40
2018-11-03T19:41:14.094Z,17.62
2018-11-03T19:43:42.464Z,16.67
2018-11-03T19:46:10.880Z,19.20
2018-11-03T19:48:39.298Z,18.98
2018-11-03T19:51:07.955Z,17.48
2018-11-03T19:53:36.350Z,19.45
2018-11-03T19:56:05.223Z,20.50
2018-11-03T19:58:33.604Z,20.70
2018-11-03T20:01:02.334Z,23.32
2018-11-03T20:03:30.837Z,19.07
2018-11-03T20:05:59.224Z,20.65
2018-11-03T20:08:27.870Z,21.23
2018-11-03T20:10:56.289Z,20.95
2018-11-03T20:13:24.873Z,24.37
2018-11-03T20:15:53.575Z,21.65
2018-11-03T20:18:21.963Z,21.48
2018-11-03T20:20:50.370Z,21.17
2018-11-03T20:23:18.912Z,21.55
2018-11-03T20:25:47.314Z,20.25
2018-11-03T20:28:16.055Z,20.88
2018-11-03T20:30:45.065Z,20.17
2018-11-03T20:33:13.543Z,20.23
2018-11-03T20:35:41.929Z,19.40
2018-11-03T20:38:10.317Z,21.25
2018-11-03T20:40:38.954Z,21.00
2018-11-03T20:43:07.369Z,20.17
2018-11-03T20:45:35.749Z,21.68
2018-11-03T20:48:04.186Z,21.52
2018-11-03T20:50:32.592Z,22.32
2018-11-03T20:53:01.036Z,21.95
2018-11-03T20:55:29.478Z,21.80
2018-11-03T20:57:57.929Z,21.95
2018-11-03T21:00:26.333Z,24.60
2018-11-03T21:02:54.960Z,22.70
2018-11-03T21:05:23.608Z,24.10
2018-11-03T21:07:51.977Z,23.65
2018-11-03T21:10:20.715Z,24.67
2018-11-03T21:12:49.096Z,23.45
2018-11-03T21:15:17.543Z,22.67
2018-11-03T21:17:46.434Z,25.50
2018-11-03T21:20:15.088Z,23.77
2018-11-03T21:22:43.488Z,27.48
2018-11-03T21:25:12.170Z,26.57
2018-11-03T21:27:40.859Z,27.95
2018-11-03T21:30:10.480Z,26.82
2018-11-03T21:32:39.033Z,24.92
2018-11-03T21:35:08.211Z,28.15
2018-11-03T21:37:36.867Z,27.10
2018-11-03T21:40:06.165Z,28.15
2018-11-03T21:42:34.580Z,27.55
2018-11-03T21:45:03.156Z,26.30
2018-11-03T21:47:31.660Z,27.22
2018-11-03T21:50:00.356Z,26.33
2018-11-03T21:52:28.876Z,26.52
2018-11-03T21:54:57.295Z,26.85
2018-11-03T21:57:25.688Z,21.75
2018-11-03T21:59:54.082Z,26.42
2018-11-03T22:02:22.479Z,23.35
2018-11-03T22:04:50.866Z,24.60
2018-11-03T22:07:19.252Z,23.80
2018-11-03T22:09:48.248Z,25.72
2018-11-03T22:12:16.649Z,22.90
2018-11-03T22:14:45.338Z,21.85
2018-11-03T22:17:13.844Z,25.30
2018-11-03T22:19:42.225Z,24.20
2018-11-03T22:22:10.649Z,23.85
2018-11-03T22:24:39.051Z,22.87
2018-11-03T22:27:07.407Z,23.40
2018-11-03T22:29:35.855Z,22.00
2018-11-03T22:32:04.272Z,26.05
2018-11-03T22:34:33.259Z,24.65
2018-11-03T22:37:01.933Z,21.80
2018-11-03T22:39:30.344Z,21.30
2018-11-03T22:41:58.730Z,23.52
2018-11-03T22:44:27.136Z,24.87
2018-11-03T22:46:55.579Z,22.58
2018-11-03T22:49:23.974Z,20.02
2018-11-03T22:51:52.400Z,21.00
2018-11-03T22:54:20.808Z,22.02
2018-11-03T22:56:49.168Z,20.88
2018-11-03T22:59:17.773Z,24.35
2018-11-03T23:01:46.167Z,21.07
2018-11-03T23:04:14.554Z,20.05
2018-11-03T23:06:42.924Z,21.65
2018-11-03T23:09:11.335Z,22.10
2018-11-03T23:11:39.715Z,20.05
2018-11-03T23:14:08.291Z,24.47
2018-11-03T23:16:36.712Z,24.65
2018-11-03T23:19:05.337Z,24.02
2018-11-03T23:21:33.733Z,24.55
2018-11-03T23:24:02.154Z,25.30
2018-11-03T23:26:30.529Z,23.55
2018-11-03T23:28:59.179Z,23.12
2018-11-03T23:31:27.587Z,22.48
2018-11-03T23:33:55.982Z,23.05
2018-11-03T23:36:24.347Z,21.97
2018-11-03T23:38:53.292Z,22.80
2018-11-03T23:41:21.658Z,23.90
2018-11-03T23:43:50.058Z,23.70
2018-11-03T23:46:18.464Z,26.15
2018-11-03T23:48:46.829Z,24.92
2018-11-03T23:51:15.220Z,23.62
2018-11-03T23:53:43.622Z,21.45
2018-11-03T23:56:12.283Z,23.00
2018-11-03T23:58:40.660Z,22.87
